Seattle, WA

12:40 PM PDT on July 04, 2015 (GMT -0700)
Herrera, Inc. | | Change Station
CLOSE
Current Station
Personal Weather Station
Location: Seattle, WA
Elevation: 121 ft
Nearby Weather Stations
Active Advisory: Heat Advisory Active Notice: Record Report

Elev 121 ft 47.62 °N, 122.34 °W | Updated 15 seconds ago

Clear
Clear
81.6 °F
Feels Like 81 °F
N
0.0
Wind Variable Wind from South
Gusts 10.0 mph

Today
High -- | Low -- °F
--% Chance of Precip.
Yesterday
High -- | Low -- °F
Precip. -- in
5:17 AM 9:09 PM
Waning Gibbous, 90% visible
Pressure 29.86 in
Visibility 10.0 miles
Clouds Clear
Heat Index 81 °F
Dew Point 51 °F
Humidity 35%
Rainfall 0.00 in
Snow Depth Not available.
UV 10 out of 12
Pollen 6.10 out of 12
Air Quality Not available.
Flu Activity Not available.
METAR KBFI 041853Z 30007KT 10SM CLR 28/08 A2986 RMK AO2 SLP110 T02780083

More Conditions Fewer Conditions

Pressure 29.86 in
Visibility 10.0 miles
Clouds Clear
Heat Index 81 °F
Dew Point 51 °F
Humidity 35%
Rainfall 0.00 in
Snow Depth Not available.
UV 10 out of 12
Pollen 6.10 out of 12
Air Quality Not available.
Flu Activity Not available.
METAR KBFI 041853Z 30007KT 10SM CLR 28/08 A2986 RMK AO2 SLP110 T02780083

More Conditions Fewer Conditions

10-Day Weather Forecast

×

Almanac

Astronomy

Jul. 04, 2015 Rise Set
Actual Time
Civil Twilight
Nautical Twilight
Astronomical Twilight
Moon
Length of Visible Light
Length of Day
Tomorrow will be .
, % of the Moon is Illuminated

Today's Extremes

State Highs State Lows

Community

WunderPhotos

Upload Photos

1,835,065 photos uploaded!

WunderBlogs® & News

Nearby

Air Quality

  Air Quality AQ Index Pollutant
Not available.

Snow Depth

Station Depth Elevation

Earthquake Activity

City Distance Mag. Time & Date
Minimum magnitude displayed is 2.5.

Coastal Water Temperatures

Place Temperature

Stations

Nearby Weather Stations

Station Location Temp. Windchill Dew Point Humidity Wind Precip. Elev Updated Type
                   
Heat Advisory
Statement as of 3:57 AM PDT on July 04, 2015

... Heat advisory remains in effect until midnight PDT Sunday
night...

* timing... through Sunday evening.

* Locations... the Puget Sound Metro area including Seattle...
Tacoma... Bellevue... and The Lowlands east of Puget Sound.

* Temperatures... highs near 90 today. Highs in the lower to mid
90s on Sunday. Low temperatures tonight will also be well above
normal... lower to mid 60s for many locations.

* Impacts... high temperatures can place extra stress on the body
and possibly lead to heat exhaustion. It is easier to become
dehydrated. The interior of automobiles can become very hot...
creating a danger if children or pets are left unattended.

Precautionary/preparedness actions...

A heat advisory means heat illnesses are possible. Drink plenty
of water. Check up on elderly or infirm relatives and neighbors.